Time;durP1;ratioP1;P1;durP2;ratioP2;P2;SDS_P1;SDS_P2;PMS_P1;PMS_P2;Temp;Humidity;BMP_temperature;BMP_pressure;BME280_temperature;BME280_humidity;BME280_pressure;Samples;Min_cycle;Max_cycle;Signal;HPM_P1;HPM_P2
2024/01/15 00:01:33;;;;;;;24.97;11.43;;;-2.50;99.90;;;;;;4983520;28;20194;-59
2024/01/15 00:04:00;;;;;;;29.43;12.50;;;-2.50;99.90;;;;;;4987877;28;20207;-59
2024/01/15 00:06:26;;;;;;;39.17;13.10;;;-2.50;99.90;;;;;;4983257;28;20179;-59
2024/01/15 00:08:52;;;;;;;26.43;12.33;;;-2.50;99.90;;;;;;4988474;28;20472;-57
2024/01/15 00:11:18;;;;;;;29.97;13.73;;;-2.50;99.90;;;;;;4984151;28;21019;-55
2024/01/15 00:13:43;;;;;;;30.20;13.40;;;-2.50;99.90;;;;;;4989583;28;20612;-59
2024/01/15 00:16:10;;;;;;;33.60;14.20;;;-2.50;99.90;;;;;;4988303;28;20282;-58
2024/01/15 00:18:35;;;;;;;31.63;13.13;;;-2.50;99.90;;;;;;4988187;28;20205;-57
2024/01/15 00:21:01;;;;;;;34.03;13.93;;;-2.50;99.90;;;;;;4986059;28;20463;-56
2024/01/15 00:23:27;;;;;;;35.97;14.93;;;-2.60;99.90;;;;;;4983677;28;20175;-58
2024/01/15 00:25:52;;;;;;;31.37;14.90;;;-2.60;99.90;;;;;;4985336;28;20213;-58
2024/01/15 00:28:18;;;;;;;31.90;12.90;;;-2.60;99.90;;;;;;4988460;28;20206;-58
2024/01/15 00:30:43;;;;;;;30.77;13.00;;;-2.60;99.90;;;;;;4988857;28;20265;-58
2024/01/15 00:33:12;;;;;;;31.10;12.90;;;-2.60;99.90;;;;;;4988812;28;20306;-57
2024/01/15 00:35:37;;;;;;;34.17;14.67;;;-2.60;99.90;;;;;;4988804;28;20271;-58
2024/01/15 00:38:03;;;;;;;30.97;13.83;;;-2.60;99.90;;;;;;4985979;28;20544;-56
2024/01/15 00:40:29;;;;;;;37.47;14.20;;;-2.60;99.90;;;;;;4982708;28;20196;-58
2024/01/15 00:42:54;;;;;;;31.00;13.90;;;-2.70;99.90;;;;;;4988313;28;20186;-58
2024/01/15 00:45:20;;;;;;;40.13;13.83;;;-2.70;99.90;;;;;;4988569;28;20202;-58
2024/01/15 00:47:45;;;;;;;31.70;13.63;;;-2.70;99.90;;;;;;4987563;28;20206;-58
2024/01/15 00:50:11;;;;;;;31.43;13.03;;;-2.70;99.90;;;;;;4988942;28;20202;-59
2024/01/15 00:52:36;;;;;;;34.80;14.23;;;-2.70;99.90;;;;;;4988966;28;20229;-57
2024/01/15 00:55:02;;;;;;;30.90;14.13;;;-2.70;99.90;;;;;;4986921;28;20191;-57
2024/01/15 00:57:28;;;;;;;39.20;13.10;;;-2.70;99.90;;;;;;4983446;28;20214;-58
2024/01/15 00:59:53;;;;;;;30.30;13.23;;;-2.70;99.90;;;;;;4990014;28;20182;-58
2024/01/15 01:02:19;;;;;;;34.93;13.10;;;-2.70;99.90;;;;;;4989652;28;20182;-58
2024/01/15 01:04:44;;;;;;;30.07;12.70;;;-2.70;99.90;;;;;;4989180;28;20195;-58
2024/01/15 01:07:10;;;;;;;26.57;12.17;;;-2.70;99.90;;;;;;4979650;28;20206;-59
2024/01/15 01:09:35;;;;;;;28.40;12.40;;;-2.60;99.90;;;;;;4985204;28;20761;-57
2024/01/15 01:12:01;;;;;;;25.67;11.43;;;-2.60;99.90;;;;;;4986677;28;20183;-59
2024/01/15 01:14:27;;;;;;;30.07;13.03;;;-2.60;99.90;;;;;;4984437;28;20652;-58
2024/01/15 01:16:52;;;;;;;27.73;11.83;;;-2.60;99.90;;;;;;4987106;28;20231;-57
2024/01/15 01:19:18;;;;;;;32.97;13.70;;;-2.50;99.90;;;;;;4978364;28;20725;-56
2024/01/15 01:21:43;;;;;;;34.87;14.50;;;-2.50;99.90;;;;;;4984414;28;20587;-58
2024/01/15 01:24:09;;;;;;;34.00;12.90;;;-2.50;99.90;;;;;;4981693;28;20205;-57
2024/01/15 01:26:34;;;;;;;26.97;12.00;;;-2.50;99.90;;;;;;4986741;28;20662;-58
2024/01/15 01:29:00;;;;;;;27.50;12.70;;;-2.60;99.90;;;;;;4987761;28;20233;-58
2024/01/15 01:31:26;;;;;;;25.07;10.60;;;-2.60;99.90;;;;;;4982362;28;20274;-58
2024/01/15 01:33:51;;;;;;;30.53;12.50;;;-2.60;99.90;;;;;;4985162;28;20592;-58
2024/01/15 01:36:17;;;;;;;25.90;11.10;;;-2.60;99.90;;;;;;4987238;28;20237;-58
2024/01/15 01:38:42;;;;;;;22.23;10.13;;;-2.60;99.90;;;;;;4988125;28;20254;-59
2024/01/15 01:41:08;;;;;;;23.20;10.40;;;-2.60;99.90;;;;;;4983361;28;20270;-58
2024/01/15 01:43:33;;;;;;;26.30;10.37;;;-2.60;99.90;;;;;;4988494;28;20183;-57
2024/01/15 01:46:01;;;;;;;23.23;10.70;;;-2.60;99.90;;;;;;4986421;28;20214;-58
2024/01/15 01:48:27;;;;;;;27.80;9.97;;;-2.60;99.90;;;;;;4987805;28;20253;-58
2024/01/15 01:50:59;;;;;;;20.10;8.77;;;-2.60;99.90;;;;;;4980500;28;20425;-58
2024/01/15 01:53:26;;;;;;;22.87;9.23;;;-2.60;99.90;;;;;;4988484;28;20269;-57
2024/01/15 01:55:54;;;;;;;22.60;9.50;;;-2.50;99.90;;;;;;4986030;28;20978;-57
2024/01/15 01:58:20;;;;;;;19.73;8.77;;;-2.50;99.90;;;;;;4988773;28;20500;-58
2024/01/15 02:00:47;;;;;;;27.73;9.33;;;-2.50;99.90;;;;;;4972412;28;20439;-58
2024/01/15 02:03:13;;;;;;;20.03;9.53;;;-2.50;99.90;;;;;;4978982;28;20418;-58
2024/01/15 02:05:40;;;;;;;25.10;9.27;;;-2.50;99.90;;;;;;4982529;28;20504;-58
2024/01/15 02:08:06;;;;;;;21.13;9.37;;;-2.50;99.90;;;;;;4989893;28;20438;-58
2024/01/15 02:10:32;;;;;;;21.87;9.30;;;-2.50;99.90;;;;;;4984354;28;20841;-57
2024/01/15 02:12:57;;;;;;;17.53;7.73;;;-2.50;99.90;;;;;;4989493;28;20928;-59
2024/01/15 02:15:23;;;;;;;23.70;10.10;;;-2.50;99.90;;;;;;4992048;28;20204;-58
2024/01/15 02:18:01;;;;;;;16.87;8.40;;;-2.50;99.90;;;;;;4988693;28;20207;-58
2024/01/15 02:20:27;;;;;;;17.90;9.03;;;-2.50;99.90;;;;;;4976659;28;20181;-56
2024/01/15 02:22:53;;;;;;;19.90;8.93;;;-2.50;99.90;;;;;;4980340;28;20424;-57
2024/01/15 02:25:19;;;;;;;18.07;7.90;;;-2.50;99.90;;;;;;4990516;28;20208;-57
2024/01/15 02:27:46;;;;;;;17.50;9.17;;;-2.40;99.90;;;;;;4989358;28;20450;-57
2024/01/15 02:30:12;;;;;;;24.90;9.10;;;-2.40;99.90;;;;;;4983658;28;20810;-58
2024/01/15 02:32:38;;;;;;;16.97;8.50;;;-2.40;99.90;;;;;;4991274;28;20434;-58
2024/01/15 02:35:04;;;;;;;17.50;8.33;;;-2.40;99.90;;;;;;4990760;28;20456;-59
2024/01/15 02:37:29;;;;;;;18.47;8.80;;;-2.40;99.90;;;;;;4983029;28;20476;-59
2024/01/15 02:39:55;;;;;;;18.17;7.93;;;-2.40;99.90;;;;;;4990229;28;20232;-57
2024/01/15 02:42:20;;;;;;;19.07;7.83;;;-2.40;99.90;;;;;;4990326;28;20241;-58
2024/01/15 02:44:46;;;;;;;15.80;7.90;;;-2.40;99.90;;;;;;4986853;28;20665;-55
2024/01/15 02:47:12;;;;;;;17.60;8.27;;;-2.40;99.90;;;;;;4982638;28;20211;-57
2024/01/15 02:49:37;;;;;;;16.23;8.17;;;-2.40;99.90;;;;;;4990970;28;20167;-57
2024/01/15 02:52:03;;;;;;;20.37;8.40;;;-2.40;99.90;;;;;;4990887;28;20175;-56
2024/01/15 02:54:28;;;;;;;18.30;8.50;;;-2.40;99.90;;;;;;4986555;28;20184;-58
2024/01/15 02:56:54;;;;;;;17.53;7.60;;;-2.40;99.90;;;;;;4986900;28;20185;-59
2024/01/15 02:59:20;;;;;;;18.80;8.00;;;-2.40;99.90;;;;;;4990680;28;20854;-58
2024/01/15 03:01:45;;;;;;;16.80;8.70;;;-2.40;99.90;;;;;;4990773;28;20234;-58
2024/01/15 03:04:11;;;;;;;20.17;9.10;;;-2.30;99.90;;;;;;4984057;28;20207;-57
2024/01/15 03:06:36;;;;;;;15.83;7.90;;;-2.30;99.90;;;;;;4990238;28;20171;-59
2024/01/15 03:09:03;;;;;;;18.83;8.00;;;-2.30;99.90;;;;;;4990590;28;20185;-56
2024/01/15 03:11:29;;;;;;;19.90;8.10;;;-2.30;99.90;;;;;;4981893;28;20181;-57
2024/01/15 03:13:54;;;;;;;14.93;7.30;;;-2.30;99.90;;;;;;4981275;28;20456;-57
2024/01/15 03:16:20;;;;;;;17.07;7.60;;;-2.30;99.90;;;;;;4983673;28;20209;-58
2024/01/15 03:18:46;;;;;;;13.93;7.10;;;-2.30;99.90;;;;;;4981717;28;20195;-56
2024/01/15 03:21:11;;;;;;;17.17;8.20;;;-2.30;99.90;;;;;;4986056;28;20262;-57
2024/01/15 03:23:37;;;;;;;21.53;8.00;;;-2.30;99.90;;;;;;4988241;28;20167;-59
2024/01/15 03:26:03;;;;;;;18.20;8.17;;;-2.30;99.90;;;;;;4984365;28;20206;-56
2024/01/15 03:28:30;;;;;;;15.80;7.97;;;-2.30;99.90;;;;;;4986190;28;20444;-57
2024/01/15 03:30:56;;;;;;;17.57;8.40;;;-2.30;99.90;;;;;;4987772;28;20646;-57
2024/01/15 03:33:21;;;;;;;21.10;9.27;;;-2.30;99.90;;;;;;4985841;28;20493;-58
2024/01/15 03:35:47;;;;;;;21.47;8.93;;;-2.30;99.90;;;;;;4988184;28;20222;-56
2024/01/15 03:38:12;;;;;;;22.17;10.17;;;-2.30;99.90;;;;;;4990013;28;20195;-56
2024/01/15 03:40:38;;;;;;;20.87;9.67;;;-2.20;99.90;;;;;;4988778;28;20177;-57
2024/01/15 03:43:04;;;;;;;21.77;9.53;;;-2.20;99.90;;;;;;4976763;28;20179;-57
2024/01/15 03:45:29;;;;;;;21.53;9.30;;;-2.20;99.90;;;;;;4985868;28;20542;-57
2024/01/15 03:47:55;;;;;;;19.07;8.67;;;-2.20;99.90;;;;;;4979184;28;20195;-56
2024/01/15 03:50:20;;;;;;;15.50;8.33;;;-2.30;99.90;;;;;;4987154;28;20241;-57
2024/01/15 03:52:46;;;;;;;16.67;8.17;;;-2.30;99.90;;;;;;4986686;28;20179;-55
2024/01/15 03:55:11;;;;;;;19.00;7.67;;;-2.30;99.90;;;;;;4981079;28;21076;-57
2024/01/15 03:57:37;;;;;;;19.33;8.40;;;-2.30;99.90;;;;;;4988372;28;20198;-59
2024/01/15 04:00:03;;;;;;;19.50;8.50;;;-2.30;99.90;;;;;;4981040;28;20187;-57
2024/01/15 04:02:29;;;;;;;21.60;8.47;;;-2.20;99.90;;;;;;4985734;28;20554;-57
2024/01/15 04:04:54;;;;;;;16.43;7.77;;;-2.20;99.90;;;;;;4984119;28;20528;-57
2024/01/15 04:07:20;;;;;;;17.17;7.40;;;-2.20;99.90;;;;;;4988203;28;20194;-59
2024/01/15 04:09:45;;;;;;;18.03;8.37;;;-2.20;99.90;;;;;;4972308;28;20188;-55
2024/01/15 04:12:11;;;;;;;15.40;7.73;;;-2.20;99.90;;;;;;4987991;28;20624;-56
2024/01/15 04:14:37;;;;;;;16.43;7.57;;;-2.20;99.90;;;;;;4982672;28;20191;-59
2024/01/15 04:17:02;;;;;;;18.90;7.83;;;-2.10;99.90;;;;;;4978966;28;20800;-59
2024/01/15 04:19:28;;;;;;;16.00;8.37;;;-2.10;99.90;;;;;;4984479;28;20183;-59
2024/01/15 04:21:53;;;;;;;15.20;8.07;;;-2.10;99.90;;;;;;4986193;28;20190;-58
2024/01/15 04:24:19;;;;;;;22.13;8.30;;;-2.10;99.90;;;;;;4988637;28;20209;-58
2024/01/15 04:26:45;;;;;;;16.47;8.27;;;-2.10;99.90;;;;;;4981032;28;20187;-59
2024/01/15 04:29:10;;;;;;;18.40;8.00;;;-2.10;99.90;;;;;;4987022;28;20195;-59
2024/01/15 04:31:36;;;;;;;23.30;8.90;;;-2.10;99.90;;;;;;4988083;28;20805;-58
2024/01/15 04:34:02;;;;;;;17.53;7.57;;;-2.10;99.90;;;;;;4989398;28;20257;-57
2024/01/15 04:36:27;;;;;;;17.83;7.93;;;-2.10;99.90;;;;;;4982043;28;20638;-57
2024/01/15 04:38:53;;;;;;;17.93;7.07;;;-2.10;99.90;;;;;;4988484;28;20227;-60
2024/01/15 04:41:18;;;;;;;16.80;7.17;;;-2.10;99.90;;;;;;4987932;28;20173;-57
2024/01/15 04:43:44;;;;;;;17.30;7.67;;;-2.10;99.90;;;;;;4989096;28;20177;-58
2024/01/15 04:46:10;;;;;;;18.23;7.50;;;-2.10;99.90;;;;;;4979949;28;20209;-58
2024/01/15 04:48:36;;;;;;;19.53;8.77;;;-2.10;99.90;;;;;;4988597;28;20191;-58
2024/01/15 04:51:04;;;;;;;16.33;7.40;;;-2.10;99.90;;;;;;4985201;28;20454;-59
2024/01/15 04:53:30;;;;;;;17.63;7.40;;;-2.10;99.90;;;;;;4984572;28;20506;-59
2024/01/15 04:55:55;;;;;;;13.03;6.30;;;-2.10;99.90;;;;;;4984621;28;20505;-59
2024/01/15 04:58:24;;;;;;;11.60;6.60;;;-2.10;99.90;;;;;;4989210;28;20218;-59
2024/01/15 05:00:50;;;;;;;13.13;5.70;;;-2.10;99.90;;;;;;4988685;28;20270;-59
2024/01/15 05:03:15;;;;;;;11.27;6.60;;;-2.10;99.90;;;;;;4987019;28;20534;-59
2024/01/15 05:05:41;;;;;;;16.30;7.13;;;-2.10;99.90;;;;;;4987011;28;20219;-58
2024/01/15 05:08:07;;;;;;;17.23;7.27;;;-2.00;99.90;;;;;;4988211;28;20209;-59
2024/01/15 05:10:32;;;;;;;14.33;6.40;;;-2.00;99.90;;;;;;4981356;28;20647;-59
2024/01/15 05:12:58;;;;;;;9.27;5.10;;;-2.00;99.90;;;;;;4986748;28;20173;-57
2024/01/15 05:15:23;;;;;;;12.50;5.90;;;-1.90;99.90;;;;;;4988158;28;20202;-58
2024/01/15 05:17:49;;;;;;;9.73;5.53;;;-1.90;99.90;;;;;;4987350;28;20294;-57
2024/01/15 05:20:14;;;;;;;16.00;6.63;;;-1.80;99.90;;;;;;4986422;28;20190;-57
2024/01/15 05:22:40;;;;;;;12.70;6.10;;;-1.80;99.90;;;;;;4978063;28;20645;-57
2024/01/15 05:25:06;;;;;;;13.53;5.97;;;-1.80;99.90;;;;;;4976172;28;20206;-58
2024/01/15 05:27:31;;;;;;;15.73;7.10;;;-1.80;99.90;;;;;;4976344;28;20198;-57
2024/01/15 05:29:57;;;;;;;10.90;5.60;;;-1.80;99.90;;;;;;4985874;28;20472;-58
2024/01/15 05:32:23;;;;;;;12.30;5.90;;;-1.80;99.90;;;;;;4981815;28;20183;-58
2024/01/15 05:34:49;;;;;;;8.50;5.30;;;-1.80;99.90;;;;;;4983964;28;20183;-57
2024/01/15 05:37:14;;;;;;;10.47;4.50;;;-1.80;99.90;;;;;;4987504;28;20580;-59
2024/01/15 05:39:40;;;;;;;12.00;5.53;;;-1.70;99.90;;;;;;4982477;28;20206;-57
2024/01/15 05:42:05;;;;;;;8.87;4.40;;;-1.70;99.90;;;;;;4988445;28;20191;-58
2024/01/15 05:44:31;;;;;;;7.80;4.33;;;-1.70;99.90;;;;;;4987610;28;20236;-58
2024/01/15 05:46:57;;;;;;;13.73;6.10;;;-1.70;99.90;;;;;;4989023;28;20179;-58
2024/01/15 05:49:22;;;;;;;8.70;4.07;;;-1.60;99.90;;;;;;4984042;28;20174;-58
2024/01/15 05:51:48;;;;;;;6.83;4.80;;;-1.60;99.80;;;;;;4991374;28;20279;-57
2024/01/15 05:54:14;;;;;;;5.80;3.43;;;-1.50;99.10;;;;;;4991931;28;20191;-59
2024/01/15 05:56:39;;;;;;;5.60;3.20;;;-1.50;98.50;;;;;;4985775;28;20187;-58
2024/01/15 05:59:05;;;;;;;5.37;3.70;;;-1.50;96.70;;;;;;4979498;28;20889;-56
2024/01/15 06:01:31;;;;;;;6.60;3.93;;;-1.40;95.60;;;;;;4988415;28;20426;-55
2024/01/15 06:03:56;;;;;;;9.80;3.53;;;-1.40;95.00;;;;;;4989114;28;20187;-57
2024/01/15 06:06:22;;;;;;;7.40;3.70;;;-1.30;94.50;;;;;;4986561;28;20180;-58
2024/01/15 06:08:48;;;;;;;6.00;3.87;;;-1.30;94.00;;;;;;4991560;28;20317;-59
2024/01/15 06:11:13;;;;;;;11.33;4.63;;;-1.30;94.30;;;;;;4982865;28;20198;-57
2024/01/15 06:13:39;;;;;;;7.30;3.70;;;-1.30;94.60;;;;;;4991484;28;20211;-57
2024/01/15 06:16:19;;;;;;;9.37;5.37;;;-1.20;95.10;;;;;;4990799;28;20262;-58
2024/01/15 06:18:44;;;;;;;8.57;4.90;;;-1.20;96.00;;;;;;4984646;28;20591;-59
2024/01/15 06:21:12;;;;;;;12.53;5.17;;;-1.20;97.00;;;;;;4983409;28;20433;-58
2024/01/15 06:23:38;;;;;;;11.07;4.30;;;-1.20;96.90;;;;;;4991703;28;20191;-59
2024/01/15 06:26:05;;;;;;;6.90;4.07;;;-1.30;97.10;;;;;;4982273;28;20588;-57
2024/01/15 06:28:30;;;;;;;9.00;4.10;;;-1.30;96.30;;;;;;4985697;28;20222;-58
2024/01/15 06:30:58;;;;;;;10.03;4.80;;;-1.30;96.80;;;;;;4991858;28;20422;-59
2024/01/15 06:33:23;;;;;;;7.10;4.57;;;-1.30;97.30;;;;;;4988303;28;20179;-57
2024/01/15 06:35:50;;;;;;;10.17;4.50;;;-1.30;98.00;;;;;;4983537;28;20461;-56
2024/01/15 06:38:16;;;;;;;6.00;3.87;;;-1.30;96.80;;;;;;4982570;28;20608;-57
2024/01/15 06:40:45;;;;;;;7.97;4.20;;;-1.30;96.00;;;;;;4989942;28;20442;-58
2024/01/15 06:43:11;;;;;;;13.10;4.33;;;-1.30;96.10;;;;;;4990272;28;20215;-59
2024/01/15 06:45:37;;;;;;;7.50;3.90;;;-1.30;96.00;;;;;;4985936;28;20894;-58
2024/01/15 06:48:03;;;;;;;9.03;4.27;;;-1.30;95.70;;;;;;4988827;28;20497;-58
2024/01/15 06:50:28;;;;;;;8.03;4.07;;;-1.30;95.30;;;;;;4990187;28;20184;-59
2024/01/15 06:52:54;;;;;;;8.53;4.53;;;-1.30;94.80;;;;;;4983596;28;20415;-58
2024/01/15 06:55:20;;;;;;;9.53;5.00;;;-1.30;92.90;;;;;;4981793;28;20241;-59
2024/01/15 06:57:45;;;;;;;10.20;4.70;;;-1.30;90.90;;;;;;4989393;28;20208;-58
2024/01/15 07:00:11;;;;;;;8.17;4.07;;;-1.30;86.10;;;;;;4990157;28;20176;-58
2024/01/15 07:02:37;;;;;;;5.37;3.40;;;-1.30;85.70;;;;;;4990608;28;20331;-59
2024/01/15 07:05:04;;;;;;;5.40;3.73;;;-1.30;85.50;;;;;;4982813;28;20461;-58
2024/01/15 07:07:30;;;;;;;8.67;3.90;;;-1.30;85.90;;;;;;4989608;28;20675;-59
2024/01/15 07:09:56;;;;;;;9.87;4.43;;;-1.30;83.80;;;;;;4983058;28;20447;-58
2024/01/15 07:12:23;;;;;;;6.33;3.90;;;-1.30;82.90;;;;;;4990109;28;20422;-57
2024/01/15 07:14:48;;;;;;;6.37;4.33;;;-1.30;80.20;;;;;;4989868;28;20722;-59
2024/01/15 07:17:14;;;;;;;4.20;2.97;;;-1.30;81.20;;;;;;4982198;28;20493;-57
2024/01/15 07:19:40;;;;;;;10.93;4.30;;;-1.30;81.80;;;;;;4987794;28;20187;-57
2024/01/15 07:22:06;;;;;;;5.20;3.67;;;-1.30;82.40;;;;;;4989959;28;21105;-59
2024/01/15 07:24:34;;;;;;;7.03;3.53;;;-1.30;84.00;;;;;;4990036;28;20259;-58
2024/01/15 07:26:59;;;;;;;17.47;4.53;;;-1.30;83.60;;;;;;4986603;28;20962;-58
2024/01/15 07:29:25;;;;;;;9.10;4.40;;;-1.40;82.50;;;;;;4990229;28;20418;-57
2024/01/15 07:31:51;;;;;;;7.33;5.10;;;-1.40;83.00;;;;;;4989439;28;20174;-58
2024/01/15 07:34:17;;;;;;;6.77;4.10;;;-1.40;81.50;;;;;;4989090;28;20221;-57
2024/01/15 07:36:46;;;;;;;7.17;4.53;;;-1.40;81.70;;;;;;4988817;28;20412;-57
2024/01/15 07:39:12;;;;;;;9.00;4.37;;;-1.40;81.30;;;;;;4989541;28;20701;-58
2024/01/15 07:41:37;;;;;;;5.93;4.10;;;-1.40;81.50;;;;;;4989852;28;20429;-59
2024/01/15 07:44:05;;;;;;;7.50;4.00;;;-1.40;81.80;;;;;;4979649;28;20210;-56
2024/01/15 07:46:30;;;;;;;9.53;3.77;;;-1.40;81.20;;;;;;4989340;28;20182;-58
2024/01/15 07:48:57;;;;;;;9.27;4.03;;;-1.30;81.00;;;;;;4989399;28;20441;-58
2024/01/15 07:51:23;;;;;;;8.73;4.07;;;-1.40;81.80;;;;;;4989333;28;20191;-54
2024/01/15 07:53:49;;;;;;;8.03;4.13;;;-1.40;82.60;;;;;;4988773;28;20471;-56
2024/01/15 07:56:15;;;;;;;8.80;5.20;;;-1.40;83.40;;;;;;4987796;28;20435;-58
2024/01/15 07:58:41;;;;;;;7.57;4.00;;;-1.40;84.20;;;;;;4989951;28;20469;-57
2024/01/15 08:01:07;;;;;;;7.37;4.37;;;-1.40;84.70;;;;;;4983196;28;20504;-58
2024/01/15 08:03:33;;;;;;;7.77;4.97;;;-1.30;84.90;;;;;;4984885;28;20186;-57
2024/01/15 08:05:59;;;;;;;7.10;4.63;;;-1.30;85.10;;;;;;4987439;28;20473;-57
2024/01/15 08:08:26;;;;;;;11.03;7.07;;;-1.30;86.00;;;;;;4976902;28;20203;-57
2024/01/15 08:10:52;;;;;;;7.90;5.20;;;-1.30;87.10;;;;;;4981181;28;20437;-58
2024/01/15 08:13:18;;;;;;;6.33;4.77;;;-1.30;88.10;;;;;;4989908;28;20423;-55
2024/01/15 08:15:44;;;;;;;6.63;4.23;;;-1.30;88.80;;;;;;4988756;28;20865;-57
2024/01/15 08:18:09;;;;;;;9.70;4.97;;;-1.20;88.70;;;;;;4982589;28;20211;-58
2024/01/15 08:20:35;;;;;;;8.57;4.80;;;-1.30;88.30;;;;;;4982142;28;20183;-58
2024/01/15 08:23:01;;;;;;;7.53;4.53;;;-1.20;88.20;;;;;;4988173;28;20198;-55
2024/01/15 08:25:26;;;;;;;8.00;5.00;;;-1.20;85.10;;;;;;4987997;28;20206;-57
2024/01/15 08:27:52;;;;;;;13.17;4.77;;;-1.20;85.10;;;;;;4982743;28;20681;-58
2024/01/15 08:30:18;;;;;;;16.30;5.00;;;-1.20;84.50;;;;;;4989043;28;20204;-56
2024/01/15 08:32:44;;;;;;;8.87;4.77;;;-1.20;85.30;;;;;;4988377;28;20254;-58
2024/01/15 08:35:10;;;;;;;8.23;5.00;;;-1.20;86.70;;;;;;4982141;28;20637;-58
2024/01/15 08:37:37;;;;;;;10.27;4.90;;;-1.20;88.10;;;;;;4986726;28;20533;-57
2024/01/15 08:40:03;;;;;;;8.37;5.03;;;-1.10;88.20;;;;;;4988162;28;20838;-56
2024/01/15 08:42:29;;;;;;;15.80;6.57;;;-1.10;88.00;;;;;;4986059;28;21011;-57
2024/01/15 08:44:55;;;;;;;11.60;4.77;;;-1.00;88.30;;;;;;4987904;28;20466;-57
2024/01/15 08:47:21;;;;;;;8.03;4.53;;;-1.00;88.10;;;;;;4981280;28;20203;-57
2024/01/15 08:49:46;;;;;;;7.73;4.90;;;-0.90;86.90;;;;;;4986919;28;20179;-57
2024/01/15 08:52:13;;;;;;;8.90;4.40;;;-0.70;87.00;;;;;;4974619;28;20668;-57
2024/01/15 08:54:39;;;;;;;8.73;4.30;;;-0.60;84.00;;;;;;4987123;28;20249;-56
2024/01/15 08:57:04;;;;;;;7.00;4.20;;;-0.60;80.10;;;;;;4986129;28;20947;-57
2024/01/15 08:59:30;;;;;;;9.03;4.30;;;-0.50;77.80;;;;;;4989281;28;20261;-57
2024/01/15 09:01:59;;;;;;;8.47;4.30;;;-0.50;76.70;;;;;;4989078;28;20187;-56
2024/01/15 09:04:25;;;;;;;7.93;4.03;;;-0.40;75.90;;;;;;4982584;28;20207;-57
2024/01/15 09:06:50;;;;;;;6.27;4.00;;;-0.40;74.90;;;;;;4987447;28;20577;-58
2024/01/15 09:09:16;;;;;;;8.50;4.30;;;-0.40;74.50;;;;;;4984787;28;20202;-56
2024/01/15 09:11:42;;;;;;;6.67;4.40;;;-0.30;74.90;;;;;;4983539;28;20195;-57
2024/01/15 09:14:09;;;;;;;7.57;4.40;;;-0.30;74.40;;;;;;4988129;28;20197;-58
2024/01/15 09:16:34;;;;;;;6.07;4.17;;;-0.30;73.60;;;;;;4976041;28;20187;-57
2024/01/15 09:19:00;;;;;;;8.10;5.00;;;-0.20;74.50;;;;;;4986375;28;20485;-56
2024/01/15 09:21:26;;;;;;;10.10;5.03;;;-0.20;74.00;;;;;;4986936;28;20768;-57
2024/01/15 09:23:51;;;;;;;5.97;3.70;;;-0.20;74.70;;;;;;4992425;28;20190;-57
2024/01/15 09:26:17;;;;;;;7.20;4.13;;;-0.20;74.10;;;;;;4989652;28;20206;-58
2024/01/15 09:28:43;;;;;;;7.67;4.47;;;-0.30;69.20;;;;;;4990317;28;20203;-57
2024/01/15 09:31:08;;;;;;;5.90;3.50;;;-0.30;70.00;;;;;;4992062;28;20221;-58
2024/01/15 09:33:34;;;;;;;4.03;3.50;;;-0.30;71.10;;;;;;4992118;28;20179;-57
2024/01/15 09:36:03;;;;;;;6.90;3.50;;;-0.20;71.10;;;;;;4987248;28;20615;-57
2024/01/15 09:38:31;;;;;;;2.70;2.43;;;-0.20;69.40;;;;;;4992542;28;20878;-57
2024/01/15 09:40:57;;;;;;;4.73;3.10;;;-0.10;68.70;;;;;;4991286;28;20796;-57
2024/01/15 09:43:23;;;;;;;5.20;2.60;;;-0.10;66.80;;;;;;4986042;28;20449;-56
2024/01/15 09:45:50;;;;;;;3.00;2.23;;;0.00;66.30;;;;;;4984996;28;20236;-57
2024/01/15 09:48:16;;;;;;;2.57;2.37;;;0.00;65.50;;;;;;4984642;28;20218;-58
2024/01/15 09:50:42;;;;;;;3.90;2.63;;;0.10;64.60;;;;;;4992171;28;20863;-58
2024/01/15 09:53:09;;;;;;;3.60;2.53;;;0.10;64.00;;;;;;4991505;28;20418;-58
2024/01/15 09:55:37;;;;;;;2.80;2.40;;;0.20;63.50;;;;;;4987128;28;20472;-57
2024/01/15 09:58:03;;;;;;;2.87;2.57;;;0.20;63.00;;;;;;4991292;28;20439;-57
2024/01/15 10:00:31;;;;;;;4.00;2.60;;;0.30;63.20;;;;;;4985788;28;20468;-57
2024/01/15 10:02:56;;;;;;;3.17;2.50;;;0.30;63.40;;;;;;4987499;28;20847;-58
2024/01/15 10:05:22;;;;;;;4.80;2.87;;;0.40;63.70;;;;;;4989456;28;20523;-58
2024/01/15 10:07:51;;;;;;;2.70;2.33;;;0.40;63.40;;;;;;4991256;28;20685;-56
2024/01/15 10:10:16;;;;;;;3.40;2.20;;;0.40;63.50;;;;;;4987005;28;20183;-56
2024/01/15 10:12:42;;;;;;;3.00;2.43;;;0.50;63.70;;;;;;4984564;28;20427;-57
2024/01/15 10:15:12;;;;;;;3.20;2.20;;;0.50;63.10;;;;;;4983829;28;20880;-58
2024/01/15 10:17:38;;;;;;;2.73;2.13;;;0.50;62.60;;;;;;4984576;28;20282;-58
2024/01/15 10:20:12;;;;;;;7.40;3.80;;;0.50;62.70;;;;;;4989368;28;20562;-53
2024/01/15 10:22:46;;;;;;;3.50;3.20;;;0.50;61.60;;;;;;4997134;28;20477;-49
2024/01/15 10:25:15;;;;;;;3.23;2.13;;;0.50;61.30;;;;;;4979083;28;20470;-50
2024/01/15 10:27:41;;;;;;;3.30;2.43;;;0.50;61.50;;;;;;4984357;28;20520;-49
2024/01/15 10:30:10;;;;;;;3.77;2.60;;;0.50;61.20;;;;;;4989336;28;20422;-50
2024/01/15 10:32:36;;;;;;;3.83;2.53;;;0.50;61.60;;;;;;4986387;28;20511;-51
2024/01/15 10:35:04;;;;;;;3.83;2.77;;;0.50;60.80;;;;;;4987978;28;20569;-48
2024/01/15 10:37:33;;;;;;;3.73;2.80;;;0.60;60.90;;;;;;4989922;28;20230;-50
2024/01/15 10:40:04;;;;;;;3.13;2.30;;;0.70;61.40;;;;;;4989171;28;20415;-49
2024/01/15 10:42:30;;;;;;;2.20;1.97;;;0.80;61.30;;;;;;4985936;28;20411;-50
2024/01/15 10:44:56;;;;;;;2.27;1.87;;;1.00;61.10;;;;;;4988505;28;20472;-49
2024/01/15 10:47:22;;;;;;;3.77;2.20;;;1.10;59.80;;;;;;4978537;28;20529;-50
2024/01/15 10:49:48;;;;;;;2.03;1.93;;;1.20;59.80;;;;;;4981139;28;20764;-50
2024/01/15 10:52:15;;;;;;;3.63;2.30;;;1.20;58.80;;;;;;4979781;28;20511;-51
2024/01/15 10:54:42;;;;;;;2.07;1.80;;;1.30;59.00;;;;;;4980839;28;20450;-50
2024/01/15 10:57:08;;;;;;;2.83;2.20;;;1.40;58.80;;;;;;4975465;28;20547;-49
2024/01/15 10:59:36;;;;;;;2.37;1.57;;;1.40;58.00;;;;;;4981649;28;20433;-48
2024/01/15 11:02:02;;;;;;;2.47;2.27;;;1.50;57.30;;;;;;4984056;28;20431;-49
2024/01/15 11:04:28;;;;;;;1.93;1.80;;;1.50;57.40;;;;;;4981916;28;21089;-50
2024/01/15 11:06:55;;;;;;;3.03;1.93;;;1.60;57.10;;;;;;4985984;28;20426;-50
2024/01/15 11:09:21;;;;;;;1.80;1.70;;;1.60;57.30;;;;;;4985487;28;20498;-52
2024/01/15 11:11:49;;;;;;;2.90;1.90;;;1.60;58.00;;;;;;4985191;28;20420;-50
2024/01/15 11:14:35;;;;;;;1.90;1.80;;;1.60;57.60;;;;;;4981141;28;20275;-50
2024/01/15 11:17:00;;;;;;;4.60;2.40;;;1.50;56.80;;;;;;4988241;28;20423;-50
2024/01/15 11:19:34;;;;;;;4.37;2.10;;;1.50;56.80;;;;;;4985437;28;20788;-48
2024/01/15 11:22:00;;;;;;;2.37;2.17;;;1.50;57.50;;;;;;4987182;28;20605;-53
2024/01/15 11:24:41;;;;;;;3.70;2.20;;;1.40;57.20;;;;;;4983388;28;21019;-49
2024/01/15 11:27:08;;;;;;;5.83;2.30;;;1.40;57.00;;;;;;4979809;28;20204;-50
2024/01/15 11:29:37;;;;;;;3.00;2.17;;;1.30;57.00;;;;;;4987299;28;20426;-48
2024/01/15 11:32:09;;;;;;;3.73;2.30;;;1.30;57.50;;;;;;4986706;28;20824;-49
2024/01/15 11:34:50;;;;;;;2.40;1.90;;;1.40;57.80;;;;;;4976947;28;20412;-49
2024/01/15 11:37:16;;;;;;;2.10;1.90;;;1.40;56.80;;;;;;4976199;28;20424;-51
2024/01/15 11:39:46;;;;;;;2.70;1.90;;;1.40;56.80;;;;;;4971364;28;20431;-51
2024/01/15 11:42:13;;;;;;;4.63;1.80;;;1.40;56.70;;;;;;4977298;28;20188;-48
2024/01/15 11:44:39;;;;;;;3.43;2.17;;;1.40;57.20;;;;;;4974739;28;20464;-53
2024/01/15 11:47:12;;;;;;;2.90;2.20;;;1.40;57.50;;;;;;4980040;28;21164;-49
2024/01/15 11:49:43;;;;;;;3.27;2.40;;;1.30;57.20;;;;;;4980862;28;20417;-52
2024/01/15 11:52:11;;;;;;;2.50;2.30;;;1.30;57.40;;;;;;4988417;28;20437;-50
2024/01/15 11:54:38;;;;;;;3.23;2.43;;;1.30;57.50;;;;;;4989423;28;20426;-49
2024/01/15 11:57:16;;;;;;;3.70;2.90;;;1.30;57.60;;;;;;4987657;28;20453;-49
2024/01/15 11:59:43;;;;;;;3.47;2.67;;;1.30;57.90;;;;;;4982717;28;20490;-51
2024/01/15 12:02:11;;;;;;;2.50;2.10;;;1.30;57.70;;;;;;4989610;28;20423;-53
2024/01/15 12:04:37;;;;;;;1.70;1.60;;;1.30;57.50;;;;;;4989577;28;20463;-50
2024/01/15 12:07:02;;;;;;;3.00;2.40;;;1.30;57.50;;;;;;4988061;28;20428;-51
2024/01/15 12:09:29;;;;;;;3.90;2.33;;;1.20;57.60;;;;;;4985050;28;20587;-49
2024/01/15 12:12:05;;;;;;;3.57;2.60;;;1.20;57.80;;;;;;4985645;28;20408;-52
2024/01/15 12:14:31;;;;;;;2.43;2.10;;;1.20;57.60;;;;;;4989738;28;20517;-50
2024/01/15 12:16:57;;;;;;;2.97;2.47;;;1.20;57.70;;;;;;4981971;28;20419;-50
2024/01/15 12:19:23;;;;;;;3.47;1.90;;;1.20;57.90;;;;;;4982818;28;20461;-50
2024/01/15 12:21:51;;;;;;;2.50;2.30;;;1.10;58.00;;;;;;4988903;28;20172;-50
2024/01/15 12:24:17;;;;;;;2.37;2.17;;;1.10;58.30;;;;;;4988502;28;20652;-50
2024/01/15 12:26:43;;;;;;;6.30;2.00;;;1.20;58.80;;;;;;4987523;28;20412;-50
2024/01/15 12:29:11;;;;;;;2.53;2.33;;;1.20;58.70;;;;;;4982280;28;20462;-50
2024/01/15 12:31:36;;;;;;;3.37;2.20;;;1.20;58.50;;;;;;4989441;28;20417;-50
2024/01/15 12:34:02;;;;;;;3.70;2.40;;;1.20;58.70;;;;;;4979548;28;20433;-52
2024/01/15 12:36:31;;;;;;;4.73;3.00;;;1.20;58.90;;;;;;4981494;28;20184;-49
2024/01/15 12:38:59;;;;;;;2.30;2.07;;;1.20;59.10;;;;;;4988025;28;20199;-52